createdAt,value
2022-10-12T00:00:31.553Z,100206.84
2022-10-12T00:10:33.070Z,100191.28
2022-10-12T00:20:34.546Z,100204.97
2022-10-12T00:30:37.606Z,100199.56
2022-10-12T00:40:38.979Z,100204.59
2022-10-12T00:50:40.356Z,100204.16
2022-10-12T01:00:41.845Z,100196.97
2022-10-12T01:10:43.258Z,100190.44
2022-10-12T01:20:53.744Z,100194.84
2022-10-12T01:31:02.814Z,100186.63
2022-10-12T01:41:24.834Z,100173.50
2022-10-12T01:51:55.716Z,100171.34
2022-10-12T02:02:18.643Z,100171.25
2022-10-12T02:12:21.175Z,100160.94
2022-10-12T02:22:23.909Z,100152.03
2022-10-12T02:32:49.975Z,100146.44
2022-10-12T02:43:10.777Z,100142.38
2022-10-12T02:53:13.009Z,100127.09
2022-10-12T03:03:14.490Z,100111.72
2022-10-12T03:13:15.964Z,100098.47
2022-10-12T03:23:17.349Z,100087.22
2022-10-12T03:33:19.330Z,100089.66
2022-10-12T03:43:20.705Z,100083.84
2022-10-12T03:53:22.191Z,100079.34
2022-10-12T04:03:23.552Z,100071.63
2022-10-12T04:13:25.094Z,100086.81
2022-10-12T04:23:26.564Z,100081.50
2022-10-12T04:33:28.088Z,100069.59
2022-10-12T04:43:29.497Z,100084.78
2022-10-12T04:53:31.439Z,100067.31
2022-10-12T05:03:32.971Z,100066.22
2022-10-12T05:13:34.362Z,100068.81
2022-10-12T05:23:35.878Z,100050.88
2022-10-12T05:33:37.314Z,100059.06
2022-10-12T05:43:38.692Z,100052.09
2022-10-12T05:53:40.053Z,100067.78
2022-10-12T06:03:41.489Z,100068.28
2022-10-12T06:13:42.864Z,100081.28
2022-10-12T06:23:44.260Z,100084.00
2022-10-12T06:33:45.818Z,100077.34
2022-10-12T06:43:47.183Z,100083.06
2022-10-12T06:53:48.542Z,100088.81
2022-10-12T07:03:50.040Z,100082.81
2022-10-12T07:13:51.407Z,100084.63
2022-10-12T07:23:52.980Z,100086.84
2022-10-12T07:33:54.539Z,100090.41
2022-10-12T07:43:56.652Z,100089.09
2022-10-12T07:54:00.038Z,100089.03
2022-10-12T08:04:02.205Z,100082.41
2022-10-12T08:14:03.774Z,100078.34
2022-10-12T08:24:05.400Z,100089.63
2022-10-12T08:34:06.893Z,100086.56
2022-10-12T08:44:23.398Z,100084.03
2022-10-12T08:54:27.401Z,100076.38
2022-10-12T09:04:52.614Z,100076.38
2022-10-12T09:14:57.269Z,100068.63
2022-10-12T09:24:58.786Z,100069.44
2022-10-12T09:35:00.196Z,100070.75
2022-10-12T09:45:03.143Z,100080.75
2022-10-12T09:55:23.902Z,100087.81
2022-10-12T10:05:35.072Z,100087.53
2022-10-12T10:15:39.041Z,100075.94
2022-10-12T10:25:40.423Z,100078.03
2022-10-12T10:36:02.654Z,100083.66
2022-10-12T10:46:04.137Z,100088.59
2022-10-12T10:56:07.881Z,100077.44
2022-10-12T11:06:17.861Z,100079.72
2022-10-12T11:16:51.182Z,100066.56
2022-10-12T11:26:57.003Z,100059.91
2022-10-12T11:37:18.852Z,100057.22
2022-10-12T11:47:36.195Z,100039.91
2022-10-12T11:57:37.821Z,100031.72
2022-10-12T12:07:45.368Z,100029.22
2022-10-12T12:18:04.315Z,100017.53
2022-10-12T12:28:16.319Z,100004.03
2022-10-12T12:38:22.009Z,99993.72
2022-10-12T12:48:38.598Z,99983.47
2022-10-12T12:58:54.540Z,99982.81
2022-10-12T13:09:20.217Z,99971.44
2022-10-12T13:19:22.850Z,99963.25
2022-10-12T13:29:36.559Z,99953.59
2022-10-12T13:39:43.177Z,99941.56
2022-10-12T13:49:44.662Z,99933.63
2022-10-12T13:59:46.047Z,99915.84
2022-10-12T14:20:27.872Z,99888.50
2022-10-12T14:30:34.806Z,99867.50
2022-10-12T14:40:39.223Z,99890.41
2022-10-12T14:50:40.666Z,99875.56
2022-10-12T15:00:42.102Z,99862.66
2022-10-12T15:10:43.572Z,99859.00
2022-10-12T15:20:49.431Z,99858.19
2022-10-12T15:31:15.851Z,99849.13
2022-10-12T15:41:21.620Z,99833.56
2022-10-12T15:51:23.914Z,99843.31
2022-10-12T16:01:25.390Z,99836.63
2022-10-12T16:11:29.731Z,99838.50
2022-10-12T16:21:33.612Z,99805.69
2022-10-12T16:31:35.055Z,99790.81
2022-10-12T16:41:36.771Z,99788.22
2022-10-12T16:51:38.792Z,99794.34
2022-10-12T17:01:41.387Z,99799.06
2022-10-12T17:11:42.780Z,99794.69
2022-10-12T17:21:44.552Z,99794.25
2022-10-12T17:31:46.265Z,99821.34
2022-10-12T17:41:47.877Z,99844.66
2022-10-12T17:51:50.757Z,99829.56
2022-10-12T18:01:52.560Z,99856.47
2022-10-12T18:11:54.312Z,99851.94
2022-10-12T18:21:58.306Z,99842.81
2022-10-12T18:32:00.709Z,99842.94
2022-10-12T18:42:02.101Z,99841.44
2022-10-12T18:52:03.743Z,99865.97
2022-10-12T19:02:05.352Z,99854.59
2022-10-12T19:12:16.445Z,99841.38
2022-10-12T19:22:18.339Z,99831.81
2022-10-12T19:32:23.292Z,99839.28
2022-10-12T19:42:24.678Z,99821.63
2022-10-12T19:52:26.191Z,99812.94
2022-10-12T20:02:27.625Z,99810.72
2022-10-12T20:12:29.051Z,99819.59
2022-10-12T20:22:33.376Z,99821.19
2022-10-12T20:32:37.053Z,99814.44
2022-10-12T20:42:38.543Z,99820.91
2022-10-12T20:52:45.313Z,99821.66
2022-10-12T21:02:46.710Z,99826.38
2022-10-12T21:12:48.260Z,99829.56
2022-10-12T21:22:49.828Z,99834.91
2022-10-12T21:32:51.786Z,99827.03
2022-10-12T21:42:53.176Z,99828.53
2022-10-12T21:53:00.008Z,99828.66
2022-10-12T22:03:01.761Z,99837.03
2022-10-12T22:13:03.140Z,99834.91
2022-10-12T22:23:08.219Z,99820.44
2022-10-12T22:33:09.926Z,99818.56
2022-10-12T22:43:11.557Z,99805.78
2022-10-12T22:53:13.074Z,99808.78
2022-10-12T23:03:14.568Z,99810.81
2022-10-12T23:13:16.073Z,99800.88
2022-10-12T23:23:17.698Z,99795.50
2022-10-12T23:33:19.317Z,99797.38
2022-10-12T23:43:20.799Z,99779.78
2022-10-12T23:53:22.701Z,99782.66
